sensor_id;sensor_type;location;lat;lon;timestamp;pressure;altitude;pressure_sealevel;temperature;humidity
73600;BME280;61877;48.246;9.220;2023-02-01T00:00:15;94762.44;;;1.42;84.56
73600;BME280;61877;48.246;9.220;2023-02-01T00:02:41;94760.06;;;1.41;84.67
73600;BME280;61877;48.246;9.220;2023-02-01T00:05:07;94762.72;;;1.46;84.88
73600;BME280;61877;48.246;9.220;2023-02-01T00:07:32;94761.13;;;1.45;84.67
73600;BME280;61877;48.246;9.220;2023-02-01T00:09:59;94760.84;;;1.46;84.93
73600;BME280;61877;48.246;9.220;2023-02-01T00:12:25;94749.78;;;1.44;84.95
73600;BME280;61877;48.246;9.220;2023-02-01T00:14:50;94744.50;;;1.44;84.99
73600;BME280;61877;48.246;9.220;2023-02-01T00:17:15;94742.09;;;1.43;85.25
73600;BME280;61877;48.246;9.220;2023-02-01T00:19:41;94736.56;;;1.39;85.49
73600;BME280;61877;48.246;9.220;2023-02-01T00:22:06;94730.47;;;1.33;85.38
73600;BME280;61877;48.246;9.220;2023-02-01T00:24:31;94735.75;;;1.28;85.73
73600;BME280;61877;48.246;9.220;2023-02-01T00:26:58;94738.13;;;1.25;85.86
73600;BME280;61877;48.246;9.220;2023-02-01T00:29:23;94725.69;;;1.20;86.04
73600;BME280;61877;48.246;9.220;2023-02-01T00:31:50;94725.97;;;1.19;86.07
73600;BME280;61877;48.246;9.220;2023-02-01T00:34:16;94728.88;;;1.17;86.02
73600;BME280;61877;48.246;9.220;2023-02-01T00:36:42;94729.66;;;1.18;86.11
73600;BME280;61877;48.246;9.220;2023-02-01T00:39:09;94723.59;;;1.17;85.90
73600;BME280;61877;48.246;9.220;2023-02-01T00:41:34;94724.63;;;1.16;86.09
73600;BME280;61877;48.246;9.220;2023-02-01T00:44:01;94716.19;;;1.09;86.44
73600;BME280;61877;48.246;9.220;2023-02-01T00:46:27;94710.38;;;1.02;86.71
73600;BME280;61877;48.246;9.220;2023-02-01T00:48:53;94702.69;;;0.91;86.94
73600;BME280;61877;48.246;9.220;2023-02-01T00:51:21;94710.88;;;0.79;87.33
73600;BME280;61877;48.246;9.220;2023-02-01T00:53:46;94702.38;;;0.62;87.94
73600;BME280;61877;48.246;9.220;2023-02-01T00:56:12;94706.56;;;0.53;87.98
73600;BME280;61877;48.246;9.220;2023-02-01T00:58:38;94716.31;;;0.43;88.20
73600;BME280;61877;48.246;9.220;2023-02-01T01:01:06;94712.03;;;0.37;88.83
73600;BME280;61877;48.246;9.220;2023-02-01T01:03:34;94708.59;;;0.31;88.90
73600;BME280;61877;48.246;9.220;2023-02-01T01:06:01;94711.28;;;0.36;89.49
73600;BME280;61877;48.246;9.220;2023-02-01T01:08:28;94713.94;;;0.41;89.35
73600;BME280;61877;48.246;9.220;2023-02-01T01:10:53;94705.22;;;0.46;89.74
73600;BME280;61877;48.246;9.220;2023-02-01T01:13:19;94706.56;;;0.53;89.45
73600;BME280;61877;48.246;9.220;2023-02-01T01:15:44;94704.19;;;0.62;89.49
73600;BME280;61877;48.246;9.220;2023-02-01T01:18:11;94695.81;;;0.90;89.13
73600;BME280;61877;48.246;9.220;2023-02-01T01:20:38;94687.13;;;0.94;88.68
73600;BME280;61877;48.246;9.220;2023-02-01T01:23:06;94687.91;;;1.05;88.47
73600;BME280;61877;48.246;9.220;2023-02-01T01:25:31;94690.00;;;1.13;88.08
73600;BME280;61877;48.246;9.220;2023-02-01T01:27:57;94694.78;;;1.21;87.87
73600;BME280;61877;48.246;9.220;2023-02-01T01:30:22;94686.88;;;1.26;87.57
73600;BME280;61877;48.246;9.220;2023-02-01T01:32:48;94687.63;;;1.37;87.33
73600;BME280;61877;48.246;9.220;2023-02-01T01:35:15;94693.72;;;1.42;87.25
73600;BME280;61877;48.246;9.220;2023-02-01T01:37:40;94691.63;;;1.44;86.91
73600;BME280;61877;48.246;9.220;2023-02-01T01:40:07;94707.72;;;1.58;86.02
73600;BME280;61877;48.246;9.220;2023-02-01T01:42:36;94704.03;;;1.59;86.52
73600;BME280;61877;48.246;9.220;2023-02-01T01:45:04;94707.19;;;1.71;85.78
73600;BME280;61877;48.246;9.220;2023-02-01T01:47:34;94707.69;;;1.68;85.80
73600;BME280;61877;48.246;9.220;2023-02-01T01:50:03;94701.91;;;1.66;85.91
73600;BME280;61877;48.246;9.220;2023-02-01T01:52:30;94696.06;;;1.69;85.90
73600;BME280;61877;48.246;9.220;2023-02-01T01:54:57;94691.06;;;1.67;86.05
73600;BME280;61877;48.246;9.220;2023-02-01T01:57:26;94690.78;;;1.64;86.08
73600;BME280;61877;48.246;9.220;2023-02-01T01:59:55;94686.31;;;1.64;86.65
73600;BME280;61877;48.246;9.220;2023-02-01T02:02:22;94675.44;;;1.71;86.57
73600;BME280;61877;48.246;9.220;2023-02-01T02:04:48;94670.94;;;1.71;86.41
73600;BME280;61877;48.246;9.220;2023-02-01T02:07:16;94668.03;;;1.73;86.33
73600;BME280;61877;48.246;9.220;2023-02-01T02:09:44;94656.41;;;1.69;86.83
73600;BME280;61877;48.246;9.220;2023-02-01T02:12:09;94655.06;;;1.71;86.55
73600;BME280;61877;48.246;9.220;2023-02-01T02:14:35;94648.19;;;1.70;87.16
73600;BME280;61877;48.246;9.220;2023-02-01T02:17:19;94651.13;;;1.69;87.02
73600;BME280;61877;48.246;9.220;2023-02-01T02:20:23;94651.88;;;1.69;87.08
73600;BME280;61877;48.246;9.220;2023-02-01T02:26:27;94658.78;;;1.70;87.27
73600;BME280;61877;48.246;9.220;2023-02-01T02:29:35;94663.81;;;1.67;87.09
73600;BME280;61877;48.246;9.220;2023-02-01T02:32:26;94655.59;;;1.68;87.39
73600;BME280;61877;48.246;9.220;2023-02-01T02:35:17;94651.66;;;1.66;87.49
73600;BME280;61877;48.246;9.220;2023-02-01T02:37:53;94649.03;;;1.66;88.09
73600;BME280;61877;48.246;9.220;2023-02-01T02:40:29;94648.22;;;1.65;87.99
73600;BME280;61877;48.246;9.220;2023-02-01T02:43:02;94648.50;;;1.64;88.06
73600;BME280;61877;48.246;9.220;2023-02-01T02:45:37;94650.06;;;1.65;88.91
73600;BME280;61877;48.246;9.220;2023-02-01T02:48:09;94642.38;;;1.68;88.39
73600;BME280;61877;48.246;9.220;2023-02-01T02:50:41;94643.72;;;1.71;88.25
73600;BME280;61877;48.246;9.220;2023-02-01T02:53:10;94638.16;;;1.72;88.54
73600;BME280;61877;48.246;9.220;2023-02-01T02:55:38;94634.72;;;1.72;88.73
73600;BME280;61877;48.246;9.220;2023-02-01T02:58:05;94633.13;;;1.76;89.33
73600;BME280;61877;48.246;9.220;2023-02-01T03:00:33;94627.81;;;1.81;88.93
73600;BME280;61877;48.246;9.220;2023-02-01T03:03:00;94636.78;;;1.90;88.72
73600;BME280;61877;48.246;9.220;2023-02-01T03:05:25;94626.16;;;2.00;88.51
73600;BME280;61877;48.246;9.220;2023-02-01T03:08:02;94637.97;;;2.17;87.85
73600;BME280;61877;48.246;9.220;2023-02-01T03:10:34;94629.50;;;2.25;87.03
73600;BME280;61877;48.246;9.220;2023-02-01T03:13:03;94625.28;;;2.19;87.50
73600;BME280;61877;48.246;9.220;2023-02-01T03:15:35;94626.09;;;2.15;87.81
73600;BME280;61877;48.246;9.220;2023-02-01T03:18:05;94627.94;;;2.14;87.83
73600;BME280;61877;48.246;9.220;2023-02-01T03:20:31;94623.22;;;2.06;88.61
73600;BME280;61877;48.246;9.220;2023-02-01T03:22:59;94633.53;;;2.08;88.87
73600;BME280;61877;48.246;9.220;2023-02-01T03:25:28;94626.06;;;2.20;88.23
73600;BME280;61877;48.246;9.220;2023-02-01T03:27:59;94626.09;;;2.15;88.40
73600;BME280;61877;48.246;9.220;2023-02-01T03:30:28;94630.31;;;2.16;88.91
73600;BME280;61877;48.246;9.220;2023-02-01T03:32:57;94628.47;;;2.11;88.60
73600;BME280;61877;48.246;9.220;2023-02-01T03:35:26;94637.25;;;2.07;88.88
73600;BME280;61877;48.246;9.220;2023-02-01T03:37:55;94635.94;;;1.99;89.29
73600;BME280;61877;48.246;9.220;2023-02-01T03:40:24;94642.84;;;1.95;89.48
73600;BME280;61877;48.246;9.220;2023-02-01T03:42:54;94648.91;;;1.96;89.78
73600;BME280;61877;48.246;9.220;2023-02-01T03:45:24;94654.00;;;1.87;89.58
73600;BME280;61877;48.246;9.220;2023-02-01T03:47:54;94652.13;;;1.83;90.16
73600;BME280;61877;48.246;9.220;2023-02-01T03:50:21;94645.28;;;1.77;90.37
73600;BME280;61877;48.246;9.220;2023-02-01T03:52:51;94653.75;;;1.74;90.55
73600;BME280;61877;48.246;9.220;2023-02-01T03:55:22;94647.66;;;1.73;90.47
73600;BME280;61877;48.246;9.220;2023-02-01T03:57:53;94651.66;;;1.71;90.84
73600;BME280;61877;48.246;9.220;2023-02-01T04:00:22;94652.44;;;1.66;90.64
73600;BME280;61877;48.246;9.220;2023-02-01T04:02:47;94665.38;;;1.63;90.91
73600;BME280;61877;48.246;9.220;2023-02-01T04:05:13;94656.97;;;1.61;90.67
73600;BME280;61877;48.246;9.220;2023-02-01T04:07:38;94654.59;;;1.59;90.84
73600;BME280;61877;48.246;9.220;2023-02-01T04:10:05;94667.53;;;1.56;91.00
73600;BME280;61877;48.246;9.220;2023-02-01T04:12:31;94669.66;;;1.54;91.13
73600;BME280;61877;48.246;9.220;2023-02-01T04:14:57;94663.31;;;1.50;91.49
73600;BME280;61877;48.246;9.220;2023-02-01T04:17:23;94660.66;;;1.55;90.97
73600;BME280;61877;48.246;9.220;2023-02-01T04:19:48;94647.44;;;1.50;91.27
73600;BME280;61877;48.246;9.220;2023-02-01T04:22:14;94649.56;;;1.48;91.31
73600;BME280;61877;48.246;9.220;2023-02-01T04:24:39;94648.78;;;1.47;91.40
73600;BME280;61877;48.246;9.220;2023-02-01T04:27:04;94650.63;;;1.47;91.38
73600;BME280;61877;48.246;9.220;2023-02-01T04:29:30;94648.25;;;1.45;91.25
73600;BME280;61877;48.246;9.220;2023-02-01T04:31:57;94638.47;;;1.51;91.05
73600;BME280;61877;48.246;9.220;2023-02-01T04:34:22;94627.09;;;1.55;90.49
73600;BME280;61877;48.246;9.220;2023-02-01T04:36:48;94629.75;;;1.50;90.84
73600;BME280;61877;48.246;9.220;2023-02-01T04:39:13;94617.06;;;1.47;91.29
73600;BME280;61877;48.246;9.220;2023-02-01T04:41:39;94625.75;;;1.53;90.77
73600;BME280;61877;48.246;9.220;2023-02-01T04:44:04;94625.50;;;1.54;91.11
73600;BME280;61877;48.246;9.220;2023-02-01T04:46:30;94624.72;;;1.49;91.41
73600;BME280;61877;48.246;9.220;2023-02-01T04:48:57;94622.34;;;1.47;91.34
73600;BME280;61877;48.246;9.220;2023-02-01T04:51:22;94645.06;;;1.48;91.39
73600;BME280;61877;48.246;9.220;2023-02-01T04:53:48;94647.44;;;1.50;91.37
73600;BME280;61877;48.246;9.220;2023-02-01T04:56:13;94663.56;;;1.53;91.52
73600;BME280;61877;48.246;9.220;2023-02-01T04:58:38;94664.09;;;1.60;91.54
73600;BME280;61877;48.246;9.220;2023-02-01T05:01:05;94661.44;;;1.65;90.70
73600;BME280;61877;48.246;9.220;2023-02-01T05:03:31;94661.16;;;1.72;91.14
73600;BME280;61877;48.246;9.220;2023-02-01T05:05:58;94665.34;;;1.83;90.33
73600;BME280;61877;48.246;9.220;2023-02-01T05:08:24;94672.25;;;1.84;90.83
73600;BME280;61877;48.246;9.220;2023-02-01T05:10:49;94662.72;;;1.78;91.00
73600;BME280;61877;48.246;9.220;2023-02-01T05:13:15;94649.75;;;1.81;91.31
73600;BME280;61877;48.246;9.220;2023-02-01T05:15:40;94639.13;;;1.96;89.32
73600;BME280;61877;48.246;9.220;2023-02-01T05:18:05;94639.31;;;2.15;87.23
73600;BME280;61877;48.246;9.220;2023-02-01T05:20:31;94643.56;;;2.11;87.96
73600;BME280;61877;48.246;9.220;2023-02-01T05:22:57;94655.16;;;2.25;87.26
73600;BME280;61877;48.246;9.220;2023-02-01T05:25:23;94652.00;;;2.23;87.31
73600;BME280;61877;48.246;9.220;2023-02-01T05:27:48;94638.53;;;2.14;87.53
73600;BME280;61877;48.246;9.220;2023-02-01T05:30:14;94630.34;;;2.06;87.66
73600;BME280;61877;48.246;9.220;2023-02-01T05:32:40;94642.81;;;2.00;88.03
73600;BME280;61877;48.246;9.220;2023-02-01T05:35:06;94634.88;;;2.05;87.54
73600;BME280;61877;48.246;9.220;2023-02-01T05:37:31;94645.19;;;2.02;87.63
73600;BME280;61877;48.246;9.220;2023-02-01T05:40:03;94649.66;;;2.06;87.94
73600;BME280;61877;48.246;9.220;2023-02-01T05:42:29;94648.13;;;2.00;88.28
73600;BME280;61877;48.246;9.220;2023-02-01T05:44:54;94654.72;;;1.98;88.48
73600;BME280;61877;48.246;9.220;2023-02-01T05:47:20;94651.03;;;1.99;88.30
73600;BME280;61877;48.246;9.220;2023-02-01T05:49:45;94660.56;;;1.95;87.57
73600;BME280;61877;48.246;9.220;2023-02-01T05:52:10;94654.47;;;1.94;87.68
73600;BME280;61877;48.246;9.220;2023-02-01T05:54:36;94658.97;;;2.04;86.73
73600;BME280;61877;48.246;9.220;2023-02-01T05:57:03;94656.47;;;2.22;84.90
73600;BME280;61877;48.246;9.220;2023-02-01T05:59:28;94663.66;;;2.17;85.29
73600;BME280;61877;48.246;9.220;2023-02-01T06:01:53;94648.53;;;2.27;83.89
73600;BME280;61877;48.246;9.220;2023-02-01T06:04:19;94649.88;;;2.25;84.13
73600;BME280;61877;48.246;9.220;2023-02-01T06:06:44;94651.72;;;2.24;84.38
73600;BME280;61877;48.246;9.220;2023-02-01T06:09:10;94658.50;;;2.45;82.27
73600;BME280;61877;48.246;9.220;2023-02-01T06:11:35;94654.47;;;2.58;81.29
73600;BME280;61877;48.246;9.220;2023-02-01T06:14:02;94661.34;;;2.54;82.08
73600;BME280;61877;48.246;9.220;2023-02-01T06:16:28;94667.47;;;2.54;82.08
73600;BME280;61877;48.246;9.220;2023-02-01T06:18:53;94666.94;;;2.52;81.90
73600;BME280;61877;48.246;9.220;2023-02-01T06:21:19;94665.91;;;2.48;82.79
73600;BME280;61877;48.246;9.220;2023-02-01T06:23:44;94669.63;;;2.42;83.36
73600;BME280;61877;48.246;9.220;2023-02-01T06:26:10;94666.75;;;2.34;84.42
73600;BME280;61877;48.246;9.220;2023-02-01T06:28:35;94669.69;;;2.32;83.55
73600;BME280;61877;48.246;9.220;2023-02-01T06:31:05;94674.41;;;2.40;82.39
73600;BME280;61877;48.246;9.220;2023-02-01T06:33:30;94674.63;;;2.49;81.89
73600;BME280;61877;48.246;9.220;2023-02-01T06:35:57;94678.28;;;2.63;80.21
73600;BME280;61877;48.246;9.220;2023-02-01T06:38:22;94674.78;;;2.67;80.54
73600;BME280;61877;48.246;9.220;2023-02-01T06:40:52;94667.97;;;2.56;81.52
73600;BME280;61877;48.246;9.220;2023-02-01T06:43:17;94675.44;;;2.49;81.82
73600;BME280;61877;48.246;9.220;2023-02-01T06:45:43;94672.97;;;2.63;80.31
73600;BME280;61877;48.246;9.220;2023-02-01T06:48:10;94668.88;;;2.81;78.95
73600;BME280;61877;48.246;9.220;2023-02-01T06:50:35;94673.34;;;2.90;78.06
73600;BME280;61877;48.246;9.220;2023-02-01T06:53:01;94671.94;;;3.03;77.19
73600;BME280;61877;48.246;9.220;2023-02-01T06:55:26;94667.13;;;3.10;76.65
73600;BME280;61877;48.246;9.220;2023-02-01T06:57:55;94668.16;;;3.09;77.16
73600;BME280;61877;48.246;9.220;2023-02-01T07:00:21;94667.69;;;3.07;77.04
73600;BME280;61877;48.246;9.220;2023-02-01T07:02:47;94671.34;;;3.11;76.86
73600;BME280;61877;48.246;9.220;2023-02-01T07:05:14;94678.06;;;2.98;79.11
73600;BME280;61877;48.246;9.220;2023-02-01T07:07:39;94671.22;;;2.87;80.24
73600;BME280;61877;48.246;9.220;2023-02-01T07:10:05;94672.88;;;2.78;81.97
73600;BME280;61877;48.246;9.220;2023-02-01T07:12:31;94679.28;;;2.67;83.17
73600;BME280;61877;48.246;9.220;2023-02-01T07:14:56;94689.88;;;2.67;83.41
73600;BME280;61877;48.246;9.220;2023-02-01T07:17:22;94695.72;;;2.69;83.47
73600;BME280;61877;48.246;9.220;2023-02-01T07:20:01;94700.00;;;2.60;84.02
73600;BME280;61877;48.246;9.220;2023-02-01T07:23:00;94687.56;;;2.55;84.06
73600;BME280;61877;48.246;9.220;2023-02-01T07:25:29;94686.28;;;2.53;84.11
73600;BME280;61877;48.246;9.220;2023-02-01T07:27:54;94689.88;;;2.67;83.33
73600;BME280;61877;48.246;9.220;2023-02-01T07:30:23;94686.75;;;2.65;83.20
73600;BME280;61877;48.246;9.220;2023-02-01T07:45:50;94707.94;;;2.65;83.68
73600;BME280;61877;48.246;9.220;2023-02-01T07:48:16;94711.38;;;2.60;83.97
73600;BME280;61877;48.246;9.220;2023-02-01T07:50:41;94705.56;;;2.63;83.48
73600;BME280;61877;48.246;9.220;2023-02-01T07:53:06;94718.56;;;2.60;83.94
73600;BME280;61877;48.246;9.220;2023-02-01T07:55:32;94714.75;;;2.76;83.21
73600;BME280;61877;48.246;9.220;2023-02-01T07:57:57;94721.13;;;2.75;82.78
73600;BME280;61877;48.246;9.220;2023-02-01T08:00:23;94715.28;;;2.78;82.50
73600;BME280;61877;48.246;9.220;2023-02-01T08:02:50;94720.03;;;2.81;82.81
73600;BME280;61877;48.246;9.220;2023-02-01T08:05:15;94713.16;;;2.80;83.17
73600;BME280;61877;48.246;9.220;2023-02-01T08:07:41;94720.81;;;2.82;82.20
73600;BME280;61877;48.246;9.220;2023-02-01T08:10:06;94715.06;;;2.70;83.08
73600;BME280;61877;48.246;9.220;2023-02-01T08:12:32;94724.09;;;2.63;82.34
73600;BME280;61877;48.246;9.220;2023-02-01T08:14:57;94727.19;;;2.76;81.99
73600;BME280;61877;48.246;9.220;2023-02-01T08:17:23;94735.88;;;2.91;80.84
73600;BME280;61877;48.246;9.220;2023-02-01T08:19:50;94728.44;;;2.93;80.45
73600;BME280;61877;48.246;9.220;2023-02-01T08:22:15;94732.66;;;2.94;80.24
73600;BME280;61877;48.246;9.220;2023-02-01T08:24:40;94739.50;;;3.00;80.21
73600;BME280;61877;48.246;9.220;2023-02-01T08:27:06;94742.66;;;3.07;79.92
73600;BME280;61877;48.246;9.220;2023-02-01T08:29:31;94745.13;;;2.94;79.90
73600;BME280;61877;48.246;9.220;2023-02-01T08:31:57;94729.13;;;3.09;79.73
73600;BME280;61877;48.246;9.220;2023-02-01T08:34:22;94734.28;;;3.29;79.52
73600;BME280;61877;48.246;9.220;2023-02-01T08:36:49;94724.53;;;3.24;79.03
73600;BME280;61877;48.246;9.220;2023-02-01T08:39:14;94721.28;;;3.32;79.72
73600;BME280;61877;48.246;9.220;2023-02-01T08:41:40;94711.25;;;3.29;79.10
73600;BME280;61877;48.246;9.220;2023-02-01T08:44:05;94727.66;;;3.31;79.39
73600;BME280;61877;48.246;9.220;2023-02-01T08:46:31;94723.31;;;3.12;79.54
73600;BME280;61877;48.246;9.220;2023-02-01T08:48:56;94723.44;;;3.25;80.29
73600;BME280;61877;48.246;9.220;2023-02-01T08:51:22;94724.59;;;3.14;81.05
73600;BME280;61877;48.246;9.220;2023-02-01T08:53:49;94717.72;;;3.13;81.42
73600;BME280;61877;48.246;9.220;2023-02-01T08:56:16;94706.28;;;3.18;82.05
73600;BME280;61877;48.246;9.220;2023-02-01T08:58:41;94720.94;;;3.05;81.46
73600;BME280;61877;48.246;9.220;2023-02-01T09:01:08;94735.25;;;3.04;82.35
73600;BME280;61877;48.246;9.220;2023-02-01T09:03:34;94742.03;;;3.20;83.18
73600;BME280;61877;48.246;9.220;2023-02-01T09:06:00;94745.53;;;3.16;83.57
73600;BME280;61877;48.246;9.220;2023-02-01T09:08:26;94749.09;;;3.40;82.58
73600;BME280;61877;48.246;9.220;2023-02-01T09:10:52;94745.81;;;3.53;82.56
73600;BME280;61877;48.246;9.220;2023-02-01T09:13:18;94730.41;;;3.50;80.65
73600;BME280;61877;48.246;9.220;2023-02-01T09:15:43;94736.22;;;3.57;80.47
73600;BME280;61877;48.246;9.220;2023-02-01T09:18:09;94732.25;;;3.54;81.02
73600;BME280;61877;48.246;9.220;2023-02-01T09:20:34;94740.69;;;3.61;80.23
73600;BME280;61877;48.246;9.220;2023-02-01T09:23:01;94742.94;;;3.78;79.88
73600;BME280;61877;48.246;9.220;2023-02-01T09:25:27;94746.50;;;3.63;81.31
73600;BME280;61877;48.246;9.220;2023-02-01T09:27:53;94746.53;;;3.58;81.08
73600;BME280;61877;48.246;9.220;2023-02-01T09:30:19;94745.91;;;3.71;80.22
73600;BME280;61877;48.246;9.220;2023-02-01T09:32:44;94758.47;;;3.61;76.79
73600;BME280;61877;48.246;9.220;2023-02-01T09:35:10;94749.81;;;3.79;77.76
73600;BME280;61877;48.246;9.220;2023-02-01T09:37:35;94758.50;;;3.89;75.36
73600;BME280;61877;48.246;9.220;2023-02-01T09:40:00;94756.09;;;3.88;75.52
73600;BME280;61877;48.246;9.220;2023-02-01T09:42:42;94754.16;;;3.98;74.65
73600;BME280;61877;48.246;9.220;2023-02-01T09:45:17;94755.28;;;4.21;73.61
73600;BME280;61877;48.246;9.220;2023-02-01T09:47:49;94749.25;;;4.39;73.34
73600;BME280;61877;48.246;9.220;2023-02-01T09:50:18;94759.38;;;4.09;71.85
73600;BME280;61877;48.246;9.220;2023-02-01T09:52:48;94763.25;;;4.21;72.21
73600;BME280;61877;48.246;9.220;2023-02-01T09:55:19;94762.63;;;4.29;71.34
73600;BME280;61877;48.246;9.220;2023-02-01T09:57:49;94776.88;;;4.38;70.73
73600;BME280;61877;48.246;9.220;2023-02-01T10:00:22;94759.56;;;4.17;71.22
73600;BME280;61877;48.246;9.220;2023-02-01T10:02:50;94744.91;;;4.20;71.29
73600;BME280;61877;48.246;9.220;2023-02-01T10:05:22;94737.88;;;4.57;70.03
73600;BME280;61877;48.246;9.220;2023-02-01T10:07:57;94745.69;;;4.49;69.54
73600;BME280;61877;48.246;9.220;2023-02-01T10:10:28;94738.06;;;4.66;68.10
73600;BME280;61877;48.246;9.220;2023-02-01T10:13:07;94751.75;;;4.73;67.77
73600;BME280;61877;48.246;9.220;2023-02-01T10:15:46;94753.53;;;5.01;65.70
73600;BME280;61877;48.246;9.220;2023-02-01T10:18:29;94750.25;;;4.43;68.88
73600;BME280;61877;48.246;9.220;2023-02-01T10:21:05;94758.97;;;4.49;68.31
73600;BME280;61877;48.246;9.220;2023-02-01T10:23:45;94774.19;;;4.15;67.74
73600;BME280;61877;48.246;9.220;2023-02-01T10:26:18;94768.75;;;4.25;67.20
73600;BME280;61877;48.246;9.220;2023-02-01T10:28:44;94760.66;;;4.40;67.45
73600;BME280;61877;48.246;9.220;2023-02-01T10:31:13;94766.25;;;4.38;68.23
73600;BME280;61877;48.246;9.220;2023-02-01T10:33:42;94750.75;;;4.45;67.18
73600;BME280;61877;48.246;9.220;2023-02-01T10:36:14;94756.97;;;4.36;67.22
73600;BME280;61877;48.246;9.220;2023-02-01T10:38:41;94750.69;;;4.27;67.62
73600;BME280;61877;48.246;9.220;2023-02-01T10:41:12;94763.25;;;4.21;66.91
73600;BME280;61877;48.246;9.220;2023-02-01T10:43:39;94759.50;;;4.22;67.28
73600;BME280;61877;48.246;9.220;2023-02-01T10:46:05;94755.78;;;4.23;67.70
73600;BME280;61877;48.246;9.220;2023-02-01T10:48:33;94763.34;;;4.35;67.99
73600;BME280;61877;48.246;9.220;2023-02-01T10:51:00;94769.44;;;4.12;69.15
73600;BME280;61877;48.246;9.220;2023-02-01T10:53:30;94770.09;;;3.98;70.43
73600;BME280;61877;48.246;9.220;2023-02-01T10:55:56;94768.00;;;3.95;71.70
73600;BME280;61877;48.246;9.220;2023-02-01T10:58:26;94769.53;;;4.02;72.01
73600;BME280;61877;48.246;9.220;2023-02-01T11:00:54;94761.97;;;3.85;73.06
73600;BME280;61877;48.246;9.220;2023-02-01T11:03:38;94761.25;;;3.79;72.45
73600;BME280;61877;48.246;9.220;2023-02-01T11:06:11;94756.38;;;3.86;73.36
73600;BME280;61877;48.246;9.220;2023-02-01T11:08:42;94753.69;;;3.91;73.24
73600;BME280;61877;48.246;9.220;2023-02-01T11:11:08;94748.66;;;3.90;73.99
73600;BME280;61877;48.246;9.220;2023-02-01T11:13:37;94758.91;;;4.02;73.50
73600;BME280;61877;48.246;9.220;2023-02-01T11:16:04;94752.50;;;4.08;73.59
73600;BME280;61877;48.246;9.220;2023-02-01T11:18:35;94748.41;;;4.15;73.51
73600;BME280;61877;48.246;9.220;2023-02-01T11:21:01;94737.97;;;4.24;72.70
73600;BME280;61877;48.246;9.220;2023-02-01T11:23:29;94734.09;;;4.40;72.52
73600;BME280;61877;48.246;9.220;2023-02-01T11:25:57;94720.84;;;4.58;71.47
73600;BME280;61877;48.246;9.220;2023-02-01T11:28:25;94723.09;;;4.70;71.70
73600;BME280;61877;48.246;9.220;2023-02-01T11:30:55;94720.16;;;4.48;70.65
73600;BME280;61877;48.246;9.220;2023-02-01T11:33:24;94735.84;;;4.49;72.12
73600;BME280;61877;48.246;9.220;2023-02-01T11:35:52;94744.03;;;4.29;73.57
73600;BME280;61877;48.246;9.220;2023-02-01T11:38:21;94766.81;;;4.07;74.23
73600;BME280;61877;48.246;9.220;2023-02-01T11:40:47;94776.97;;;3.71;78.29
73600;BME280;61877;48.246;9.220;2023-02-01T11:43:16;94755.69;;;3.42;77.75
73600;BME280;61877;48.246;9.220;2023-02-01T11:45:53;94768.38;;;3.45;78.59
73600;BME280;61877;48.246;9.220;2023-02-01T11:48:19;94760.75;;;3.72;75.87
73600;BME280;61877;48.246;9.220;2023-02-01T11:50:55;94758.25;;;4.15;75.76
73600;BME280;61877;48.246;9.220;2023-02-01T11:53:35;94748.91;;;4.88;71.43
73600;BME280;61877;48.246;9.220;2023-02-01T11:56:11;94734.34;;;6.37;69.00
73600;BME280;61877;48.246;9.220;2023-02-01T11:58:57;94723.78;;;8.55;60.85
73600;BME280;61877;48.246;9.220;2023-02-01T12:01:39;94703.00;;;8.99;56.13
73600;BME280;61877;48.246;9.220;2023-02-01T12:07:18;94680.44;;;7.52;57.32
73600;BME280;61877;48.246;9.220;2023-02-01T12:10:01;94690.59;;;5.98;62.58
73600;BME280;61877;48.246;9.220;2023-02-01T12:12:38;94687.84;;;6.03;62.98
73600;BME280;61877;48.246;9.220;2023-02-01T12:15:26;94678.66;;;7.48;58.70
73600;BME280;61877;48.246;9.220;2023-02-01T12:18:06;94670.63;;;9.35;53.38
73600;BME280;61877;48.246;9.220;2023-02-01T12:20:47;94666.94;;;8.32;53.10
73600;BME280;61877;48.246;9.220;2023-02-01T12:23:33;94652.47;;;10.76;49.12
73600;BME280;61877;48.246;9.220;2023-02-01T12:26:11;94641.09;;;12.26;44.98
73600;BME280;61877;48.246;9.220;2023-02-01T12:29:02;94632.13;;;11.57;44.92
73600;BME280;61877;48.246;9.220;2023-02-01T12:31:35;94654.84;;;9.59;46.57
73600;BME280;61877;48.246;9.220;2023-02-01T12:34:25;94636.03;;;8.57;48.51
73600;BME280;61877;48.246;9.220;2023-02-01T12:37:03;94647.34;;;7.18;53.55
73600;BME280;61877;48.246;9.220;2023-02-01T12:39:39;94639.88;;;6.43;55.99
73600;BME280;61877;48.246;9.220;2023-02-01T12:42:10;94643.66;;;6.29;57.79
73600;BME280;61877;48.246;9.220;2023-02-01T12:44:43;94644.25;;;6.12;59.05
73600;BME280;61877;48.246;9.220;2023-02-01T12:47:18;94645.25;;;5.71;59.91
73600;BME280;61877;48.246;9.220;2023-02-01T12:49:50;94661.28;;;5.01;62.94
73600;BME280;61877;48.246;9.220;2023-02-01T12:52:19;94660.09;;;5.07;63.98
73600;BME280;61877;48.246;9.220;2023-02-01T12:54:50;94669.00;;;4.79;65.16
73600;BME280;61877;48.246;9.220;2023-02-01T12:57:23;94679.00;;;4.69;66.51
73600;BME280;61877;48.246;9.220;2023-02-01T12:59:54;94677.34;;;4.73;65.67
73600;BME280;61877;48.246;9.220;2023-02-01T13:02:26;94676.91;;;4.47;67.86
73600;BME280;61877;48.246;9.220;2023-02-01T13:04:58;94670.63;;;4.80;66.86
73600;BME280;61877;48.246;9.220;2023-02-01T13:07:28;94662.41;;;4.58;66.41
73600;BME280;61877;48.246;9.220;2023-02-01T13:10:00;94654.66;;;4.80;66.38
73600;BME280;61877;48.246;9.220;2023-02-01T13:12:36;94656.22;;;4.44;63.08
73600;BME280;61877;48.246;9.220;2023-02-01T13:15:10;94648.38;;;4.53;65.20
73600;BME280;61877;48.246;9.220;2023-02-01T13:17:39;94641.31;;;4.25;63.80
73600;BME280;61877;48.246;9.220;2023-02-01T13:20:15;94644.78;;;4.44;63.64
73600;BME280;61877;48.246;9.220;2023-02-01T13:22:44;94644.69;;;4.30;63.90
73600;BME280;61877;48.246;9.220;2023-02-01T13:25:14;94636.56;;;4.22;63.66
73600;BME280;61877;48.246;9.220;2023-02-01T13:27:41;94639.28;;;4.17;63.00
73600;BME280;61877;48.246;9.220;2023-02-01T13:30:12;94639.97;;;4.04;63.72
73600;BME280;61877;48.246;9.220;2023-02-01T13:33:13;94651.31;;;4.09;64.45
73600;BME280;61877;48.246;9.220;2023-02-01T13:35:59;94643.00;;;3.92;63.45
73600;BME280;61877;48.246;9.220;2023-02-01T13:38:48;94652.06;;;3.91;64.92